CheckWX is a tool to help pilots better visualize weather data.  It is not intended as a substitute for an official pre-flight weather briefing.

20:49:38 UTC

RCKH TAF
Kaohsiung International Airport
Kaohsiung City, Taiwan
TAF RCKH 291700Z 2918/3024 36005KT 9999 FEW015 BKN032 TEMPO 2918/2924 06005KT 5000 BR FEW010 BKN022 BKN050 BECMG 3000/3002 21005KT TEMPO 3003/3009 23010KT BECMG 3012/3014 01005KT TEMPO 3018/3024 3500 BR FEW010 BKN020 BKN040

Mar-29@
18:00 UTC

Mar-29 @ 18:00 UTC

Mar-30@
00:00 UTC

Mar-30 @ 00:00 UTC

TAF RCKH 291700Z 2918/3024 36005KT 9999 FEW015 BKN032
Wind
  • 360° at 5 KTS
Cloud Levels
  • Few at 1,500' AGL
  • Broken at 3,200' AGL

Mar-29@
18:00 UTC

Mar-29 @ 18:00 UTC

Mar-30@
00:00 UTC

Mar-30 @ 00:00 UTC

TEMPO 2918/2924 06005KT 5000 BR FEW010 BKN022 BKN050

Temporary

Temporary Changes expected for less than half the time period

Wind
  • 060° at 5 KTS
Conditions
Mist
Cloud Levels
  • Few at 1,000' AGL
  • Broken at 2,200' AGL
  • Broken at 5,000' AGL

Mar-30@
00:00 UTC

Mar-30 @ 00:00 UTC

Mar-30@
12:00 UTC

Mar-30 @ 12:00 UTC

BECMG 3000/3002 21005KT

Becoming

Becoming Conditions expected by Mon, Mar 30, 2020 @ 02:00 UTC

Wind
  • 210° at 5 KTS
Cloud Levels
  • Few at 1,500' AGL
  • Broken at 3,200' AGL

Mar-30@
03:00 UTC

Mar-30 @ 03:00 UTC

Mar-30@
09:00 UTC

Mar-30 @ 09:00 UTC

TEMPO 3003/3009 23010KT

Temporary

Temporary Changes expected for less than half the time period

Wind
  • 230° at 10 KTS
Cloud Levels

Mar-30@
12:00 UTC

Mar-30 @ 12:00 UTC

Mar-31@
00:00 UTC

Mar-31 @ 00:00 UTC

BECMG 3012/3014 01005KT

Becoming

Becoming Conditions expected by Mon, Mar 30, 2020 @ 14:00 UTC

Wind
  • 010° at 5 KTS
Cloud Levels
  • Few at 1,500' AGL
  • Broken at 3,200' AGL

Mar-30@
18:00 UTC

Mar-30 @ 18:00 UTC

Mar-31@
00:00 UTC

Mar-31 @ 00:00 UTC

TEMPO 3018/3024 3500 BR FEW010 BKN020 BKN040

Temporary

Temporary Changes expected for less than half the time period

Conditions
Mist
Cloud Levels
  • Few at 1,000' AGL
  • Broken at 2,000' AGL
  • Broken at 4,000' AGL